createdAt,value
2022-09-14T00:00:00.304Z,69.1
2022-09-14T00:05:00.117Z,68.5
2022-09-14T00:10:00.086Z,69.6
2022-09-14T00:15:00.285Z,69.3
2022-09-14T00:20:00.333Z,70.4
2022-09-14T00:25:00.360Z,70.2
2022-09-14T00:30:00.048Z,69.5
2022-09-14T00:35:00.269Z,70.6
2022-09-14T00:40:00.265Z,69.6
2022-09-14T00:45:00.280Z,69.1
2022-09-14T00:50:00.321Z,69.2
2022-09-14T00:55:00.294Z,68.5
2022-09-14T01:00:00.528Z,68.8
2022-09-14T01:05:00.109Z,68.4
2022-09-14T01:10:00.273Z,68.7
2022-09-14T01:15:02.181Z,68.5
2022-09-14T01:20:00.026Z,69.3
2022-09-14T01:25:05.980Z,69
2022-09-14T01:30:03.206Z,68.8
2022-09-14T01:35:02.804Z,68.6
2022-09-14T01:40:03.104Z,68.1
2022-09-14T01:45:01.698Z,67.9
2022-09-14T01:50:03.637Z,68.5
2022-09-14T01:55:00.282Z,67.8
2022-09-14T02:00:00.308Z,68.1
2022-09-14T02:05:02.599Z,67.8
2022-09-14T02:10:01.723Z,67.4
2022-09-14T02:15:00.134Z,68.3
2022-09-14T02:20:00.193Z,67.8
2022-09-14T02:25:00.696Z,69.1
2022-09-14T02:30:00.583Z,68.6
2022-09-14T02:34:59.903Z,69.1
2022-09-14T02:40:03.994Z,68.6
2022-09-14T02:44:59.954Z,67.7
2022-09-14T02:50:05.329Z,68
2022-09-14T02:55:00.067Z,68.8
2022-09-14T02:59:59.922Z,68.1
2022-09-14T03:04:59.856Z,68.8
2022-09-14T03:10:00.140Z,68.9
2022-09-14T03:15:00.033Z,69.8
2022-09-14T03:20:00.095Z,70.7
2022-09-14T03:25:00.109Z,71.8
2022-09-14T03:30:00.373Z,71.4
2022-09-14T03:35:00.210Z,72.1
2022-09-14T03:40:00.281Z,73.1
2022-09-14T03:45:00.079Z,72.5
2022-09-14T03:50:00.144Z,73.4
2022-09-14T03:55:00.258Z,74.7
2022-09-14T04:00:00.104Z,74.1
2022-09-14T04:04:59.993Z,75.1
2022-09-14T04:09:59.983Z,73.9
2022-09-14T04:15:00.064Z,73.6
2022-09-14T04:19:59.882Z,75.6
2022-09-14T04:25:00.003Z,74.4
2022-09-14T04:30:00.025Z,72.8
2022-09-14T04:35:00.099Z,71.5
2022-09-14T04:40:00.126Z,72.8
2022-09-14T04:45:00.289Z,72.3
2022-09-14T04:50:00.032Z,72.9
2022-09-14T04:54:59.850Z,72.1
2022-09-14T05:00:00.596Z,72.1
2022-09-14T05:05:00.089Z,71.4
2022-09-14T05:09:59.876Z,72.3
2022-09-14T05:15:00.232Z,71.4
2022-09-14T05:20:00.056Z,72.7
2022-09-14T05:24:59.806Z,72.8
2022-09-14T05:29:59.993Z,73.3
2022-09-14T05:34:59.934Z,71.8
2022-09-14T05:40:00.567Z,72.5
2022-09-14T05:44:59.918Z,73.2
2022-09-14T05:49:59.904Z,73.3
2022-09-14T05:54:59.827Z,73.7
2022-09-14T05:59:59.860Z,74.4
2022-09-14T06:04:59.830Z,74.4
2022-09-14T06:10:00.057Z,73.9
2022-09-14T06:14:59.949Z,72.6
2022-09-14T06:20:04.391Z,71.3
2022-09-14T06:24:59.789Z,72.3
2022-09-14T06:29:59.785Z,71.9
2022-09-14T06:34:59.816Z,72
2022-09-14T06:39:59.882Z,72.6
2022-09-14T06:44:59.840Z,71.7
2022-09-14T06:50:00.006Z,72.2
2022-09-14T06:54:59.771Z,73.1
2022-09-14T07:00:00.053Z,73.5
2022-09-14T07:04:59.840Z,73
2022-09-14T07:09:59.900Z,72
2022-09-14T07:14:59.947Z,72.5
2022-09-14T07:20:00.591Z,73.1
2022-09-14T07:24:59.996Z,73
2022-09-14T07:29:59.807Z,72
2022-09-14T07:34:59.961Z,73.9
2022-09-14T07:39:59.732Z,73
2022-09-14T07:44:59.839Z,70.6
2022-09-14T07:49:59.813Z,72.4
2022-09-14T07:54:59.804Z,71.6
2022-09-14T07:59:59.745Z,71.8
2022-09-14T08:04:59.804Z,71.8
2022-09-14T08:09:59.659Z,71.3
2022-09-14T08:15:00.173Z,70.9
2022-09-14T08:19:59.841Z,70.5
2022-09-14T08:24:59.633Z,69.3
2022-09-14T08:30:00.302Z,69.5
2022-09-14T08:34:59.886Z,69
2022-09-14T08:39:59.682Z,69
2022-09-14T08:44:59.769Z,69.7
2022-09-14T08:49:59.718Z,68.9
2022-09-14T08:55:00.859Z,69.4
2022-09-14T09:00:03.743Z,68.5
2022-09-14T09:04:59.591Z,68.5
2022-09-14T09:10:02.853Z,68.6
2022-09-14T09:15:01.924Z,69
2022-09-14T09:19:59.952Z,69.4
2022-09-14T09:25:02.033Z,69.5
2022-09-14T09:29:59.920Z,68.6
2022-09-14T09:34:59.942Z,68.2
2022-09-14T09:39:59.662Z,68.4
2022-09-14T09:45:03.153Z,68.5
2022-09-14T09:50:01.431Z,68.7
2022-09-14T09:54:59.649Z,68.9
2022-09-14T09:59:59.576Z,69.1
2022-09-14T10:05:01.110Z,69.9
2022-09-14T10:09:59.600Z,69.2
2022-09-14T10:14:59.686Z,69.5
2022-09-14T10:19:59.919Z,69.4
2022-09-14T10:24:59.675Z,70.1
2022-09-14T10:30:01.866Z,70.5
2022-09-14T10:34:59.688Z,71.3
2022-09-14T10:40:09.271Z,70.3
2022-09-14T10:44:59.860Z,71.7
2022-09-14T10:49:59.781Z,72.3
2022-09-14T10:55:05.191Z,70.6
2022-09-14T11:00:02.554Z,71.9
2022-09-14T11:04:59.879Z,72.5
2022-09-14T11:09:59.789Z,69.4
2022-09-14T11:14:59.600Z,69.3
2022-09-14T11:20:04.568Z,69.3
2022-09-14T11:24:59.842Z,68.5
2022-09-14T11:29:59.540Z,66.9
2022-09-14T11:34:59.552Z,66.9
2022-09-14T11:39:59.587Z,66.8
2022-09-14T11:45:01.992Z,66.6
2022-09-14T11:49:59.671Z,66
2022-09-14T11:54:59.871Z,64
2022-09-14T12:00:00.595Z,64
2022-09-14T12:04:59.726Z,64.5
2022-09-14T12:09:59.685Z,63.8
2022-09-14T12:15:00.927Z,62.2
2022-09-14T12:20:24.208Z,62.5
2022-09-14T12:24:59.561Z,63.2
2022-09-14T12:29:59.657Z,62
2022-09-14T12:35:42.404Z,60
2022-09-14T12:40:35.682Z,58.8
2022-09-14T12:44:59.571Z,56.5
2022-09-14T12:50:04.053Z,55.1
2022-09-14T12:54:59.591Z,56
2022-09-14T13:00:03.363Z,56.2
2022-09-14T13:04:59.633Z,58.2
2022-09-14T13:09:59.663Z,55.2
2022-09-14T13:15:03.399Z,52.5
2022-09-14T13:19:59.562Z,54.8
2022-09-14T13:24:59.601Z,54.6
2022-09-14T13:29:59.880Z,54.1
2022-09-14T13:34:59.569Z,54.8
2022-09-14T13:40:00.330Z,55.7
2022-09-14T13:44:59.595Z,55.4
2022-09-14T13:49:59.489Z,54.8
2022-09-14T13:54:59.659Z,56.1
2022-09-14T14:00:03.783Z,57
2022-09-14T14:04:59.644Z,56.2
2022-09-14T14:09:59.409Z,56.5
2022-09-14T14:14:59.727Z,51.3
2022-09-14T14:19:59.416Z,50.4
2022-09-14T14:25:16.093Z,50.5
2022-09-14T14:30:00.744Z,51.9
2022-09-14T14:35:03.102Z,51.9
2022-09-14T14:39:59.654Z,53.2
2022-09-14T14:44:59.711Z,53.1
2022-09-14T14:49:59.665Z,49.3
2022-09-14T14:55:01.224Z,47.6
2022-09-14T15:00:00.018Z,49.1
2022-09-14T15:04:59.554Z,47.8
2022-09-14T15:09:59.669Z,48.8
2022-09-14T15:14:59.826Z,49.4
2022-09-14T15:19:59.746Z,46.8
2022-09-14T15:24:59.442Z,49.4
2022-09-14T15:30:00.237Z,50.7
2022-09-14T15:34:59.498Z,51
2022-09-14T15:39:59.801Z,49.9
2022-09-14T15:44:59.437Z,49.4
2022-09-14T15:49:59.422Z,51.6
2022-09-14T15:54:59.358Z,53.3
2022-09-14T15:59:59.415Z,54.6
2022-09-14T16:04:59.533Z,55.4
2022-09-14T16:09:59.639Z,55.3
2022-09-14T16:14:59.555Z,54.5
2022-09-14T16:19:59.564Z,54.9
2022-09-14T16:24:59.622Z,54.9
2022-09-14T16:29:59.619Z,56.4
2022-09-14T16:34:59.302Z,55.9
2022-09-14T16:39:59.409Z,56.6
2022-09-14T16:44:59.514Z,57.5
2022-09-14T16:49:59.349Z,57.7
2022-09-14T16:54:59.452Z,57.5
2022-09-14T16:59:59.748Z,56.4
2022-09-14T17:04:59.333Z,57.2
2022-09-14T17:09:59.398Z,56.9
2022-09-14T17:14:59.557Z,56.6
2022-09-14T17:19:59.436Z,58
2022-09-14T17:24:59.433Z,58.1
2022-09-14T17:29:59.651Z,59.5
2022-09-14T17:34:59.600Z,60.4
2022-09-14T17:39:59.506Z,60.9
2022-09-14T17:44:59.590Z,60.3
2022-09-14T17:49:59.390Z,60.8
2022-09-14T17:54:59.392Z,61.7
2022-09-14T17:59:59.302Z,61.7
2022-09-14T18:04:59.440Z,61.9
2022-09-14T18:09:59.870Z,62.1
2022-09-14T18:14:59.483Z,61.9
2022-09-14T18:19:59.224Z,62.3
2022-09-14T18:24:59.368Z,62.3
2022-09-14T18:29:59.474Z,62.8
2022-09-14T18:34:59.422Z,63.5
2022-09-14T18:39:59.421Z,64.1
2022-09-14T18:44:59.253Z,63.8
2022-09-14T18:49:59.424Z,63.8
2022-09-14T18:54:59.422Z,63.4
2022-09-14T18:59:59.415Z,62.7
2022-09-14T19:04:59.537Z,62.9
2022-09-14T19:09:59.140Z,63.2
2022-09-14T19:14:59.278Z,63.5
2022-09-14T19:19:59.446Z,63.2
2022-09-14T19:24:59.384Z,63.7
2022-09-14T19:30:00.536Z,64.1
2022-09-14T19:35:00.471Z,64.5
2022-09-14T19:40:00.569Z,65.4
2022-09-14T19:45:00.387Z,64.9
2022-09-14T19:50:00.532Z,65.7
2022-09-14T19:55:00.891Z,67
2022-09-14T20:00:00.433Z,67.6
2022-09-14T20:05:00.508Z,68.6
2022-09-14T20:10:00.372Z,67.7
2022-09-14T20:15:01.088Z,68.3
2022-09-14T20:20:00.465Z,69
2022-09-14T20:25:00.343Z,70
2022-09-14T20:30:00.458Z,70.1
2022-09-14T20:35:00.229Z,70.3
2022-09-14T20:40:00.472Z,70.4
2022-09-14T20:45:00.584Z,70.6
2022-09-14T20:50:00.391Z,71.1
2022-09-14T20:55:00.401Z,71.3
2022-09-14T21:00:00.562Z,71.5
2022-09-14T21:05:00.334Z,71.7
2022-09-14T21:10:00.328Z,71.6
2022-09-14T21:15:00.286Z,71.7
2022-09-14T21:20:00.446Z,72.3
2022-09-14T21:25:00.668Z,72.6
2022-09-14T21:30:00.399Z,72.4
2022-09-14T21:35:00.377Z,72.5
2022-09-14T21:40:00.498Z,72.8
2022-09-14T21:45:00.478Z,73.1
2022-09-14T21:50:00.337Z,73.4
2022-09-14T21:55:00.319Z,73.8
2022-09-14T22:00:00.300Z,74
2022-09-14T22:05:00.400Z,74.4
2022-09-14T22:10:00.386Z,74.8
2022-09-14T22:15:00.333Z,75
2022-09-14T22:20:00.187Z,75
2022-09-14T22:25:00.392Z,74.8
2022-09-14T22:30:00.338Z,75.3
2022-09-14T22:35:00.241Z,75.4
2022-09-14T22:40:00.288Z,76.3
2022-09-14T22:45:00.253Z,76.3
2022-09-14T22:50:00.441Z,75.2
2022-09-14T22:55:00.225Z,75.6
2022-09-14T23:00:00.275Z,75.4
2022-09-14T23:05:00.351Z,75.5
2022-09-14T23:10:00.735Z,75.5
2022-09-14T23:15:00.277Z,76.8
2022-09-14T23:20:00.130Z,77.2
2022-09-14T23:25:00.294Z,75.7
2022-09-14T23:30:00.255Z,75.4
2022-09-14T23:35:00.320Z,74.9
2022-09-14T23:40:00.956Z,74.8
2022-09-14T23:45:00.247Z,75.1
2022-09-14T23:50:00.402Z,74.6
2022-09-14T23:55:00.325Z,75
